sensor_id;sensor_type;location;lat;lon;timestamp;pressure;altitude;pressure_sealevel;temperature;humidity
45525;BME280;31437;58.350;13.828;2022-08-04T00:00:12;99845.28;;;17.14;100.00
45525;BME280;31437;58.350;13.828;2022-08-04T00:05:18;99843.19;;;17.08;100.00
45525;BME280;31437;58.350;13.828;2022-08-04T00:07:50;99843.44;;;17.05;100.00
45525;BME280;31437;58.350;13.828;2022-08-04T00:10:19;99841.06;;;17.02;100.00
45525;BME280;31437;58.350;13.828;2022-08-04T00:12:46;99837.69;;;17.00;100.00
45525;BME280;31437;58.350;13.828;2022-08-04T00:15:13;99835.19;;;16.98;100.00
45525;BME280;31437;58.350;13.828;2022-08-04T00:17:59;99847.72;;;16.96;100.00
45525;BME280;31437;58.350;13.828;2022-08-04T00:20:27;99847.72;;;16.96;100.00
45525;BME280;31437;58.350;13.828;2022-08-04T00:22:54;99854.84;;;16.96;100.00
45525;BME280;31437;58.350;13.828;2022-08-04T00:25:20;99855.66;;;16.96;100.00
45525;BME280;31437;58.350;13.828;2022-08-04T00:27:45;99859.03;;;16.98;100.00
45525;BME280;31437;58.350;13.828;2022-08-04T00:30:11;99857.94;;;17.01;100.00
45525;BME280;31437;58.350;13.828;2022-08-04T00:32:37;99856.13;;;17.01;100.00
45525;BME280;31437;58.350;13.828;2022-08-04T00:35:04;99855.13;;;17.02;100.00
45525;BME280;31437;58.350;13.828;2022-08-04T00:37:30;99862.97;;;17.04;100.00
45525;BME280;31437;58.350;13.828;2022-08-04T00:39:57;99856.69;;;17.05;100.00
45525;BME280;31437;58.350;13.828;2022-08-04T00:50:04;99853.22;;;17.05;100.00
45525;BME280;31437;58.350;13.828;2022-08-04T00:52:53;99856.13;;;17.01;100.00
45525;BME280;31437;58.350;13.828;2022-08-04T01:00:43;99858.41;;;16.85;100.00
45525;BME280;31437;58.350;13.828;2022-08-04T01:03:23;99862.44;;;16.79;100.00
45525;BME280;31437;58.350;13.828;2022-08-04T01:08:27;99862.22;;;16.71;100.00
45525;BME280;31437;58.350;13.828;2022-08-04T01:11:02;99857.19;;;16.68;100.00
45525;BME280;31437;58.350;13.828;2022-08-04T01:16:07;99860.19;;;16.64;100.00
45525;BME280;31437;58.350;13.828;2022-08-04T01:29:11;99873.69;;;16.61;100.00
45525;BME280;31437;58.350;13.828;2022-08-04T01:34:21;99879.13;;;16.59;100.00
45525;BME280;31437;58.350;13.828;2022-08-04T01:36:54;99883.84;;;16.55;100.00
45525;BME280;31437;58.350;13.828;2022-08-04T01:39:21;99880.75;;;16.50;100.00
45525;BME280;31437;58.350;13.828;2022-08-04T01:42:05;99871.06;;;16.40;100.00
45525;BME280;31437;58.350;13.828;2022-08-04T01:44:30;99872.66;;;16.31;100.00
45525;BME280;31437;58.350;13.828;2022-08-04T01:46:57;99875.09;;;16.23;100.00
45525;BME280;31437;58.350;13.828;2022-08-04T01:49:26;99875.13;;;16.11;100.00
45525;BME280;31437;58.350;13.828;2022-08-04T01:51:52;99867.69;;;16.05;100.00
45525;BME280;31437;58.350;13.828;2022-08-04T01:54:20;99879.03;;;15.96;100.00
45525;BME280;31437;58.350;13.828;2022-08-04T01:56:46;99877.88;;;15.89;100.00
45525;BME280;31437;58.350;13.828;2022-08-04T01:59:11;99874.75;;;15.84;100.00
45525;BME280;31437;58.350;13.828;2022-08-04T02:01:39;99878.84;;;15.77;100.00
45525;BME280;31437;58.350;13.828;2022-08-04T02:04:04;99874.75;;;15.73;100.00
45525;BME280;31437;58.350;13.828;2022-08-04T02:06:31;99879.56;;;15.67;100.00
45525;BME280;31437;58.350;13.828;2022-08-04T02:09:16;99882.69;;;15.61;100.00
45525;BME280;31437;58.350;13.828;2022-08-04T02:11:45;99883.16;;;15.55;100.00
45525;BME280;31437;58.350;13.828;2022-08-04T02:14:24;99868.88;;;15.47;100.00
45525;BME280;31437;58.350;13.828;2022-08-04T02:17:14;99876.22;;;15.43;100.00
45525;BME280;31437;58.350;13.828;2022-08-04T02:19:47;99877.44;;;15.39;100.00
45525;BME280;31437;58.350;13.828;2022-08-04T02:22:16;99874.31;;;15.34;100.00
45525;BME280;31437;58.350;13.828;2022-08-04T02:24:44;99887.03;;;15.29;100.00
45525;BME280;31437;58.350;13.828;2022-08-04T02:27:10;99887.53;;;15.22;100.00
45525;BME280;31437;58.350;13.828;2022-08-04T02:29:57;99887.75;;;15.19;100.00
45525;BME280;31437;58.350;13.828;2022-08-04T02:32:27;99878.41;;;15.15;100.00
45525;BME280;31437;58.350;13.828;2022-08-04T02:37:18;99888.72;;;15.07;100.00
45525;BME280;31437;58.350;13.828;2022-08-04T02:39:44;99888.13;;;15.04;100.00
45525;BME280;31437;58.350;13.828;2022-08-04T02:42:11;99884.75;;;15.02;100.00
45525;BME280;31437;58.350;13.828;2022-08-04T02:44:38;99893.00;;;14.97;100.00
45525;BME280;31437;58.350;13.828;2022-08-04T02:47:03;99890.97;;;14.89;100.00
45525;BME280;31437;58.350;13.828;2022-08-04T02:49:30;99889.75;;;14.82;100.00
45525;BME280;31437;58.350;13.828;2022-08-04T02:51:59;99892.03;;;14.75;100.00
45525;BME280;31437;58.350;13.828;2022-08-04T02:54:30;99900.91;;;14.74;100.00
45525;BME280;31437;58.350;13.828;2022-08-04T02:56:57;99894.16;;;14.70;100.00
45525;BME280;31437;58.350;13.828;2022-08-04T02:59:27;99901.72;;;14.64;100.00
45525;BME280;31437;58.350;13.828;2022-08-04T03:01:53;99903.75;;;14.60;100.00
45525;BME280;31437;58.350;13.828;2022-08-04T03:04:34;99893.66;;;14.54;100.00
45525;BME280;31437;58.350;13.828;2022-08-04T03:09:38;99898.75;;;14.44;100.00
45525;BME280;31437;58.350;13.828;2022-08-04T03:14:51;99896.91;;;14.34;100.00
45525;BME280;31437;58.350;13.828;2022-08-04T03:30:12;99902.28;;;14.21;100.00
45525;BME280;31437;58.350;13.828;2022-08-04T03:32:46;99901.31;;;14.22;100.00
45525;BME280;31437;58.350;13.828;2022-08-04T03:48:39;99913.19;;;14.27;100.00
45525;BME280;31437;58.350;13.828;2022-08-04T03:56:32;99923.81;;;14.50;100.00
45525;BME280;31437;58.350;13.828;2022-08-04T04:15:13;99931.31;;;15.03;100.00
45525;BME280;31437;58.350;13.828;2022-08-04T04:25:33;99959.47;;;16.80;100.00
45525;BME280;31437;58.350;13.828;2022-08-04T04:30:46;99957.53;;;17.96;100.00
45525;BME280;31437;58.350;13.828;2022-08-04T04:36:14;99954.03;;;19.31;100.00
45525;BME280;31437;58.350;13.828;2022-08-04T04:44:11;99914.53;;;21.25;100.00
45525;BME280;31437;58.350;13.828;2022-08-04T04:54:49;99736.72;;;23.12;100.00
45525;BME280;31437;58.350;13.828;2022-08-04T05:00:13;99695.88;;;23.64;100.00
45525;BME280;31437;58.350;13.828;2022-08-04T05:05:22;99669.78;;;24.04;100.00
45525;BME280;31437;58.350;13.828;2022-08-04T05:10:45;99658.53;;;24.83;100.00
45525;BME280;31437;58.350;13.828;2022-08-04T05:15:42;99648.75;;;24.97;100.00
45525;BME280;31437;58.350;13.828;2022-08-04T05:18:10;99648.72;;;25.11;100.00
45525;BME280;31437;58.350;13.828;2022-08-04T05:20:37;99647.59;;;25.21;100.00
45525;BME280;31437;58.350;13.828;2022-08-04T05:23:10;99646.72;;;25.35;100.00
45525;BME280;31437;58.350;13.828;2022-08-04T05:25:48;99638.34;;;25.45;100.00
45525;BME280;31437;58.350;13.828;2022-08-04T05:28:16;99634.00;;;25.65;100.00
45525;BME280;31437;58.350;13.828;2022-08-04T05:30:46;99627.13;;;25.84;100.00
45525;BME280;31437;58.350;13.828;2022-08-04T05:33:15;99622.78;;;25.83;100.00
45525;BME280;31437;58.350;13.828;2022-08-04T05:35:44;99642.13;;;25.78;100.00
45525;BME280;31437;58.350;13.828;2022-08-04T05:38:13;99638.69;;;25.85;100.00
45525;BME280;31437;58.350;13.828;2022-08-04T05:40:39;99641.97;;;25.80;100.00
45525;BME280;31437;58.350;13.828;2022-08-04T05:43:05;99645.84;;;25.77;100.00
45525;BME280;31437;58.350;13.828;2022-08-04T05:45:32;99646.56;;;25.86;100.00
45525;BME280;31437;58.350;13.828;2022-08-04T05:47:58;99647.41;;;25.87;100.00
45525;BME280;31437;58.350;13.828;2022-08-04T05:50:25;99648.94;;;25.74;100.00
45525;BME280;31437;58.350;13.828;2022-08-04T05:52:50;99650.84;;;25.80;100.00
45525;BME280;31437;58.350;13.828;2022-08-04T05:55:16;99648.94;;;26.02;100.00
45525;BME280;31437;58.350;13.828;2022-08-04T05:57:42;99652.78;;;25.87;100.00
45525;BME280;31437;58.350;13.828;2022-08-04T06:00:08;99635.00;;;25.64;100.00
45525;BME280;31437;58.350;13.828;2022-08-04T06:02:34;99647.88;;;25.47;100.00
45525;BME280;31437;58.350;13.828;2022-08-04T06:05:01;99650.56;;;25.47;100.00
45525;BME280;31437;58.350;13.828;2022-08-04T06:07:29;99655.94;;;25.47;100.00
45525;BME280;31437;58.350;13.828;2022-08-04T06:09:55;99647.34;;;25.58;100.00
45525;BME280;31437;58.350;13.828;2022-08-04T06:12:21;99645.94;;;25.84;100.00
45525;BME280;31437;58.350;13.828;2022-08-04T06:14:47;99640.66;;;25.97;100.00
45525;BME280;31437;58.350;13.828;2022-08-04T06:17:20;99635.56;;;26.09;100.00
45525;BME280;31437;58.350;13.828;2022-08-04T06:19:46;99635.38;;;26.11;100.00
45525;BME280;31437;58.350;13.828;2022-08-04T06:22:13;99641.53;;;26.39;100.00
45525;BME280;31437;58.350;13.828;2022-08-04T06:24:40;99633.66;;;26.38;100.00
45525;BME280;31437;58.350;13.828;2022-08-04T06:27:06;99633.63;;;26.31;100.00
45525;BME280;31437;58.350;13.828;2022-08-04T06:29:32;99628.94;;;26.12;100.00
45525;BME280;31437;58.350;13.828;2022-08-04T06:32:01;99622.72;;;26.04;100.00
45525;BME280;31437;58.350;13.828;2022-08-04T06:34:37;99618.38;;;26.03;100.00
45525;BME280;31437;58.350;13.828;2022-08-04T06:37:03;99615.56;;;26.18;100.00
45525;BME280;31437;58.350;13.828;2022-08-04T06:39:29;99614.16;;;26.22;100.00
45525;BME280;31437;58.350;13.828;2022-08-04T06:41:56;99612.44;;;26.15;100.00
45525;BME280;31437;58.350;13.828;2022-08-04T06:44:21;99615.38;;;26.20;100.00
45525;BME280;31437;58.350;13.828;2022-08-04T06:46:48;99612.25;;;26.51;100.00
45525;BME280;31437;58.350;13.828;2022-08-04T06:49:14;99616.06;;;26.77;100.00
45525;BME280;31437;58.350;13.828;2022-08-04T06:51:41;99613.34;;;26.70;100.00
45525;BME280;31437;58.350;13.828;2022-08-04T06:54:08;99606.56;;;26.81;100.00
45525;BME280;31437;58.350;13.828;2022-08-04T06:56:33;99602.66;;;26.96;100.00
45525;BME280;31437;58.350;13.828;2022-08-04T06:58:59;99590.41;;;26.74;100.00
45525;BME280;31437;58.350;13.828;2022-08-04T07:01:25;99595.16;;;26.79;100.00
45525;BME280;31437;58.350;13.828;2022-08-04T07:03:51;99596.03;;;26.99;100.00
45525;BME280;31437;58.350;13.828;2022-08-04T07:06:17;99611.44;;;27.25;100.00
45525;BME280;31437;58.350;13.828;2022-08-04T07:08:43;99610.63;;;27.31;100.00
45525;BME280;31437;58.350;13.828;2022-08-04T07:11:08;99612.47;;;27.31;100.00
45525;BME280;31437;58.350;13.828;2022-08-04T07:13:35;99595.44;;;27.04;100.00
45525;BME280;31437;58.350;13.828;2022-08-04T07:16:01;99596.88;;;27.00;100.00
45525;BME280;31437;58.350;13.828;2022-08-04T07:18:26;99595.84;;;27.01;100.00
45525;BME280;31437;58.350;13.828;2022-08-04T07:20:51;99595.41;;;26.90;100.00
45525;BME280;31437;58.350;13.828;2022-08-04T07:23:21;99593.56;;;26.98;100.00
45525;BME280;31437;58.350;13.828;2022-08-04T07:25:51;99599.63;;;27.20;100.00
45525;BME280;31437;58.350;13.828;2022-08-04T07:28:17;99612.72;;;27.36;100.00
45525;BME280;31437;58.350;13.828;2022-08-04T07:30:43;99619.31;;;27.27;100.00
45525;BME280;31437;58.350;13.828;2022-08-04T07:33:09;99620.91;;;27.01;100.00
45525;BME280;31437;58.350;13.828;2022-08-04T07:35:34;99626.44;;;26.80;100.00
45525;BME280;31437;58.350;13.828;2022-08-04T07:38:01;99630.03;;;26.52;100.00
45525;BME280;31437;58.350;13.828;2022-08-04T07:40:27;99619.53;;;26.29;100.00
45525;BME280;31437;58.350;13.828;2022-08-04T07:42:53;99615.22;;;26.28;100.00
45525;BME280;31437;58.350;13.828;2022-08-04T07:45:19;99619.78;;;26.34;100.00
45525;BME280;31437;58.350;13.828;2022-08-04T07:47:44;99621.97;;;26.52;100.00
45525;BME280;31437;58.350;13.828;2022-08-04T07:50:10;99621.09;;;26.45;100.00
45525;BME280;31437;58.350;13.828;2022-08-04T07:52:36;99623.13;;;26.36;100.00
45525;BME280;31437;58.350;13.828;2022-08-04T07:55:02;99611.97;;;26.46;100.00
45525;BME280;31437;58.350;13.828;2022-08-04T07:57:27;99616.41;;;26.54;100.00
45525;BME280;31437;58.350;13.828;2022-08-04T07:59:53;99619.53;;;26.64;100.00
45525;BME280;31437;58.350;13.828;2022-08-04T08:02:19;99610.47;;;26.78;100.00
45525;BME280;31437;58.350;13.828;2022-08-04T08:04:46;99612.81;;;26.94;100.00
45525;BME280;31437;58.350;13.828;2022-08-04T08:07:11;99610.53;;;26.91;100.00
45525;BME280;31437;58.350;13.828;2022-08-04T08:09:37;99600.84;;;27.10;100.00
45525;BME280;31437;58.350;13.828;2022-08-04T08:12:02;99587.78;;;27.07;100.00
45525;BME280;31437;58.350;13.828;2022-08-04T08:14:28;99577.47;;;27.37;100.00
45525;BME280;31437;58.350;13.828;2022-08-04T08:16:54;99582.84;;;27.44;100.00
45525;BME280;31437;58.350;13.828;2022-08-04T08:19:19;99573.97;;;27.50;100.00
45525;BME280;31437;58.350;13.828;2022-08-04T08:21:48;99567.75;;;27.43;100.00
45525;BME280;31437;58.350;13.828;2022-08-04T08:24:14;99574.59;;;27.46;100.00
45525;BME280;31437;58.350;13.828;2022-08-04T08:26:40;99576.66;;;27.63;100.00
45525;BME280;31437;58.350;13.828;2022-08-04T08:29:06;99575.19;;;27.41;100.00
45525;BME280;31437;58.350;13.828;2022-08-04T08:31:31;99577.28;;;27.39;100.00
45525;BME280;31437;58.350;13.828;2022-08-04T08:33:57;99581.00;;;27.25;100.00
45525;BME280;31437;58.350;13.828;2022-08-04T08:39:11;99577.91;;;27.21;100.00
45525;BME280;31437;58.350;13.828;2022-08-04T09:03:16;99572.88;;;27.05;100.00
45525;BME280;31437;58.350;13.828;2022-08-04T09:11:13;99557.78;;;27.10;100.00
45525;BME280;31437;58.350;13.828;2022-08-04T09:16:41;99547.81;;;27.11;100.00
45525;BME280;31437;58.350;13.828;2022-08-04T09:19:11;99546.00;;;27.31;100.00
45525;BME280;31437;58.350;13.828;2022-08-04T09:21:44;99545.59;;;27.48;100.00
45525;BME280;31437;58.350;13.828;2022-08-04T09:24:13;99540.78;;;27.70;100.00
45525;BME280;31437;58.350;13.828;2022-08-04T09:37:32;99543.50;;;27.50;100.00
45525;BME280;31437;58.350;13.828;2022-08-04T09:40:05;99535.63;;;27.55;100.00
45525;BME280;31437;58.350;13.828;2022-08-04T09:42:44;99541.84;;;27.62;100.00
45525;BME280;31437;58.350;13.828;2022-08-04T09:45:18;99528.16;;;27.77;100.00
45525;BME280;31437;58.350;13.828;2022-08-04T09:47:52;99534.56;;;27.82;100.00
45525;BME280;31437;58.350;13.828;2022-08-04T09:50:32;99526.47;;;27.89;100.00
45525;BME280;31437;58.350;13.828;2022-08-04T09:53:05;99538.06;;;27.76;100.00
45525;BME280;31437;58.350;13.828;2022-08-04T10:00:48;99530.03;;;27.56;100.00
45525;BME280;31437;58.350;13.828;2022-08-04T10:03:15;99534.41;;;27.37;100.00
45525;BME280;31437;58.350;13.828;2022-08-04T10:05:48;99532.13;;;27.34;100.00
45525;BME280;31437;58.350;13.828;2022-08-04T10:19:14;99531.50;;;27.32;100.00
45525;BME280;31437;58.350;13.828;2022-08-04T10:24:30;99537.22;;;26.69;100.00
45525;BME280;31437;58.350;13.828;2022-08-04T10:26:59;99535.75;;;26.60;100.00
45525;BME280;31437;58.350;13.828;2022-08-04T10:29:44;99536.56;;;26.61;100.00
45525;BME280;31437;58.350;13.828;2022-08-04T10:32:13;99530.19;;;26.75;100.00
45525;BME280;31437;58.350;13.828;2022-08-04T10:34:42;99524.63;;;26.83;100.00
45525;BME280;31437;58.350;13.828;2022-08-04T10:39:46;99519.09;;;27.18;100.00
45525;BME280;31437;58.350;13.828;2022-08-04T10:42:36;99533.97;;;27.40;100.00
45525;BME280;31437;58.350;13.828;2022-08-04T10:45:18;99535.19;;;27.64;100.00
45525;BME280;31437;58.350;13.828;2022-08-04T10:47:58;99525.47;;;27.83;100.00
45525;BME280;31437;58.350;13.828;2022-08-04T10:50:26;99520.88;;;27.91;100.00
45525;BME280;31437;58.350;13.828;2022-08-04T10:53:02;99528.34;;;27.89;100.00
45525;BME280;31437;58.350;13.828;2022-08-04T10:55:34;99523.38;;;27.79;100.00
45525;BME280;31437;58.350;13.828;2022-08-04T10:58:01;99527.94;;;27.78;100.00
45525;BME280;31437;58.350;13.828;2022-08-04T11:00:28;99519.22;;;27.76;100.00
45525;BME280;31437;58.350;13.828;2022-08-04T11:03:06;99519.41;;;27.95;100.00
45525;BME280;31437;58.350;13.828;2022-08-04T11:08:11;99515.69;;;27.82;100.00
45525;BME280;31437;58.350;13.828;2022-08-04T11:10:40;99516.31;;;27.84;100.00
45525;BME280;31437;58.350;13.828;2022-08-04T11:13:10;99513.63;;;27.78;100.00
45525;BME280;31437;58.350;13.828;2022-08-04T11:15:37;99514.47;;;27.78;100.00
45525;BME280;31437;58.350;13.828;2022-08-04T11:18:13;99511.56;;;27.67;100.00
45525;BME280;31437;58.350;13.828;2022-08-04T11:20:54;99508.06;;;27.66;100.00
45525;BME280;31437;58.350;13.828;2022-08-04T11:23:22;99512.00;;;27.63;100.00
45525;BME280;31437;58.350;13.828;2022-08-04T11:28:51;99493.34;;;27.55;100.00
45525;BME280;31437;58.350;13.828;2022-08-04T11:52:32;99498.28;;;27.85;100.00
45525;BME280;31437;58.350;13.828;2022-08-04T11:54:58;99491.88;;;27.86;100.00
45525;BME280;31437;58.350;13.828;2022-08-04T11:57:26;99492.13;;;27.51;100.00
45525;BME280;31437;58.350;13.828;2022-08-04T11:59:53;99487.81;;;27.17;100.00
45525;BME280;31437;58.350;13.828;2022-08-04T12:04:56;99502.47;;;27.08;100.00
45525;BME280;31437;58.350;13.828;2022-08-04T12:07:37;99499.78;;;27.08;100.00
45525;BME280;31437;58.350;13.828;2022-08-04T12:12:54;99499.00;;;27.27;100.00
45525;BME280;31437;58.350;13.828;2022-08-04T12:15:30;99494.22;;;27.43;100.00
45525;BME280;31437;58.350;13.828;2022-08-04T12:18:07;99488.41;;;27.46;100.00
45525;BME280;31437;58.350;13.828;2022-08-04T12:20:38;99484.06;;;27.45;100.00
45525;BME280;31437;58.350;13.828;2022-08-04T12:23:05;99487.59;;;27.45;100.00
45525;BME280;31437;58.350;13.828;2022-08-04T12:25:38;99484.25;;;27.56;100.00
45525;BME280;31437;58.350;13.828;2022-08-04T12:28:07;99483.81;;;27.53;100.00
45525;BME280;31437;58.350;13.828;2022-08-04T12:30:39;99480.75;;;27.43;100.00
45525;BME280;31437;58.350;13.828;2022-08-04T12:33:11;99474.78;;;27.27;100.00
45525;BME280;31437;58.350;13.828;2022-08-04T12:35:40;99477.66;;;27.12;100.00
45525;BME280;31437;58.350;13.828;2022-08-04T12:38:12;99477.63;;;27.06;100.00
45525;BME280;31437;58.350;13.828;2022-08-04T12:40:46;99475.34;;;27.03;100.00
45525;BME280;31437;58.350;13.828;2022-08-04T12:43:25;99468.75;;;27.05;100.00
45525;BME280;31437;58.350;13.828;2022-08-04T12:46:00;99461.94;;;27.23;100.00
45525;BME280;31437;58.350;13.828;2022-08-04T12:48:26;99463.75;;;27.49;100.00
45525;BME280;31437;58.350;13.828;2022-08-04T12:50:53;99464.56;;;27.62;100.00
45525;BME280;31437;58.350;13.828;2022-08-04T12:53:19;99458.28;;;27.75;100.00
45525;BME280;31437;58.350;13.828;2022-08-04T12:55:48;99452.06;;;27.88;100.00
45525;BME280;31437;58.350;13.828;2022-08-04T12:58:20;99442.88;;;28.02;100.00
45525;BME280;31437;58.350;13.828;2022-08-04T13:01:07;99443.53;;;28.43;100.00
45525;BME280;31437;58.350;13.828;2022-08-04T13:04:34;99433.09;;;28.78;100.00
45525;BME280;31437;58.350;13.828;2022-08-04T13:06:31;99414.16;;;28.85;100.00
45525;BME280;31437;58.350;13.828;2022-08-04T13:09:02;99412.94;;;28.81;100.00
45525;BME280;31437;58.350;13.828;2022-08-04T13:11:28;99409.00;;;28.83;100.00
45525;BME280;31437;58.350;13.828;2022-08-04T13:13:58;99407.00;;;28.72;100.00
45525;BME280;31437;58.350;13.828;2022-08-04T13:16:27;99402.75;;;28.58;100.00
45525;BME280;31437;58.350;13.828;2022-08-04T13:18:53;99398.88;;;28.47;100.00
45525;BME280;31437;58.350;13.828;2022-08-04T13:21:20;99400.41;;;28.29;100.00
45525;BME280;31437;58.350;13.828;2022-08-04T13:23:46;99381.78;;;28.28;100.00
45525;BME280;31437;58.350;13.828;2022-08-04T13:26:16;99382.34;;;28.37;100.00
45525;BME280;31437;58.350;13.828;2022-08-04T13:28:48;99366.41;;;28.28;100.00
45525;BME280;31437;58.350;13.828;2022-08-04T13:31:20;99368.25;;;28.35;100.00
45525;BME280;31437;58.350;13.828;2022-08-04T13:33:46;99356.44;;;28.36;100.00
45525;BME280;31437;58.350;13.828;2022-08-04T13:36:13;99353.44;;;28.19;100.00
45525;BME280;31437;58.350;13.828;2022-08-04T13:38:45;99358.13;;;27.98;100.00
45525;BME280;31437;58.350;13.828;2022-08-04T13:41:12;99354.41;;;27.93;100.00
45525;BME280;31437;58.350;13.828;2022-08-04T13:43:45;99355.03;;;27.95;100.00
45525;BME280;31437;58.350;13.828;2022-08-04T13:46:27;99344.34;;;28.13;100.00
45525;BME280;31437;58.350;13.828;2022-08-04T13:48:53;99336.00;;;28.15;100.00
45525;BME280;31437;58.350;13.828;2022-08-04T13:51:20;99345.38;;;28.12;100.00
45525;BME280;31437;58.350;13.828;2022-08-04T13:53:53;99344.72;;;28.17;100.00
45525;BME280;31437;58.350;13.828;2022-08-04T13:56:19;99340.59;;;28.14;100.00
45525;BME280;31437;58.350;13.828;2022-08-04T13:58:46;99344.84;;;28.28;100.00
45525;BME280;31437;58.350;13.828;2022-08-04T14:01:19;99356.56;;;28.41;100.00
45525;BME280;31437;58.350;13.828;2022-08-04T14:04:01;99348.72;;;28.39;100.00
45525;BME280;31437;58.350;13.828;2022-08-04T14:06:31;99351.47;;;28.33;100.00
45525;BME280;31437;58.350;13.828;2022-08-04T14:09:20;99342.94;;;28.36;100.00
45525;BME280;31437;58.350;13.828;2022-08-04T14:11:46;99349.38;;;28.35;100.00
45525;BME280;31437;58.350;13.828;2022-08-04T14:14:19;99337.56;;;28.36;100.00
45525;BME280;31437;58.350;13.828;2022-08-04T14:16:59;99335.69;;;28.29;100.00
45525;BME280;31437;58.350;13.828;2022-08-04T14:19:25;99343.78;;;28.29;100.00
45525;BME280;31437;58.350;13.828;2022-08-04T14:21:51;99334.41;;;28.39;100.00
45525;BME280;31437;58.350;13.828;2022-08-04T14:24:26;99337.25;;;28.50;100.00
45525;BME280;31437;58.350;13.828;2022-08-04T14:26:51;99328.03;;;28.58;100.00
45525;BME280;31437;58.350;13.828;2022-08-04T14:29:17;99313.09;;;28.62;100.00
45525;BME280;31437;58.350;13.828;2022-08-04T14:31:46;99312.41;;;28.67;100.00
45525;BME280;31437;58.350;13.828;2022-08-04T14:34:23;99310.41;;;28.56;100.00
45525;BME280;31437;58.350;13.828;2022-08-04T14:36:48;99303.97;;;28.31;100.00
45525;BME280;31437;58.350;13.828;2022-08-04T14:39:14;99305.94;;;28.18;100.00
45525;BME280;31437;58.350;13.828;2022-08-04T14:41:46;99302.97;;;28.01;100.00
45525;BME280;31437;58.350;13.828;2022-08-04T14:44:12;99291.69;;;27.72;100.00
45525;BME280;31437;58.350;13.828;2022-08-04T14:46:50;99290.13;;;27.58;100.00
45525;BME280;31437;58.350;13.828;2022-08-04T14:49:16;99286.69;;;27.37;100.00
45525;BME280;31437;58.350;13.828;2022-08-04T14:51:45;99294.41;;;27.27;100.00
45525;BME280;31437;58.350;13.828;2022-08-04T14:54:15;99284.50;;;27.21;100.00
45525;BME280;31437;58.350;13.828;2022-08-04T14:56:41;99286.34;;;27.14;100.00
45525;BME280;31437;58.350;13.828;2022-08-04T14:59:15;99277.03;;;27.10;100.00
45525;BME280;31437;58.350;13.828;2022-08-04T15:01:41;99279.34;;;27.06;100.00
45525;BME280;31437;58.350;13.828;2022-08-04T15:04:07;99267.94;;;27.04;100.00
45525;BME280;31437;58.350;13.828;2022-08-04T15:06:33;99272.72;;;27.02;100.00
45525;BME280;31437;58.350;13.828;2022-08-04T15:09:05;99269.81;;;27.04;100.00
45525;BME280;31437;58.350;13.828;2022-08-04T15:11:31;99263.38;;;27.05;100.00
45525;BME280;31437;58.350;13.828;2022-08-04T15:13:59;99265.22;;;27.11;100.00
45525;BME280;31437;58.350;13.828;2022-08-04T15:16:26;99274.75;;;27.13;100.00
45525;BME280;31437;58.350;13.828;2022-08-04T15:18:52;99270.41;;;27.12;100.00
45525;BME280;31437;58.350;13.828;2022-08-04T15:21:17;99256.53;;;27.09;100.00
45525;BME280;31437;58.350;13.828;2022-08-04T15:23:43;99257.19;;;27.04;100.00
45525;BME280;31437;58.350;13.828;2022-08-04T15:26:11;99245.16;;;27.00;100.00
45525;BME280;31437;58.350;13.828;2022-08-04T15:28:37;99254.31;;;26.92;100.00
45525;BME280;31437;58.350;13.828;2022-08-04T15:31:03;99240.06;;;26.85;100.00
45525;BME280;31437;58.350;13.828;2022-08-04T15:33:29;99237.38;;;26.79;100.00
45525;BME280;31437;58.350;13.828;2022-08-04T15:36:43;99222.75;;;26.68;100.00
45525;BME280;31437;58.350;13.828;2022-08-04T15:39:05;99228.13;;;26.61;100.00
45525;BME280;31437;58.350;13.828;2022-08-04T15:41:32;99222.34;;;26.51;100.00
45525;BME280;31437;58.350;13.828;2022-08-04T15:49:18;99260.38;;;26.01;100.00
45525;BME280;31437;58.350;13.828;2022-08-04T15:51:44;99352.06;;;25.78;100.00
45525;BME280;31437;58.350;13.828;2022-08-04T15:56:47;99405.25;;;23.91;100.00
45525;BME280;31437;58.350;13.828;2022-08-04T15:59:12;99392.44;;;22.60;100.00
45525;BME280;31437;58.350;13.828;2022-08-04T16:01:38;99402.22;;;21.51;100.00
45525;BME280;31437;58.350;13.828;2022-08-04T16:04:20;99391.19;;;20.82;100.00
45525;BME280;31437;58.350;13.828;2022-08-04T16:06:45;99351.03;;;20.18;100.00
45525;BME280;31437;58.350;13.828;2022-08-04T16:09:19;99341.31;;;19.68;100.00
45525;BME280;31437;58.350;13.828;2022-08-04T16:11:45;99358.25;;;19.33;100.00
45525;BME280;31437;58.350;13.828;2022-08-04T16:14:10;99380.88;;;19.11;100.00
45525;BME280;31437;58.350;13.828;2022-08-04T16:19:07;99397.22;;;18.72;100.00
45525;BME280;31437;58.350;13.828;2022-08-04T16:21:34;99377.84;;;18.61;100.00
45525;BME280;31437;58.350;13.828;2022-08-04T16:26:53;99388.66;;;18.60;100.00
45525;BME280;31437;58.350;13.828;2022-08-04T16:34:32;99437.06;;;18.90;100.00
45525;BME280;31437;58.350;13.828;2022-08-04T16:36:58;99432.97;;;18.95;100.00
45525;BME280;31437;58.350;13.828;2022-08-04T16:39:24;99443.59;;;18.95;100.00
45525;BME280;31437;58.350;13.828;2022-08-04T16:41:49;99452.69;;;18.93;100.00
45525;BME280;31437;58.350;13.828;2022-08-04T16:44:36;99474.25;;;18.90;100.00
45525;BME280;31437;58.350;13.828;2022-08-04T16:47:03;99472.75;;;18.87;100.00
45525;BME280;31437;58.350;13.828;2022-08-04T16:49:29;99471.22;;;18.84;100.00
45525;BME280;31437;58.350;13.828;2022-08-04T16:51:59;99456.97;;;18.86;100.00
45525;BME280;31437;58.350;13.828;2022-08-04T16:54:27;99457.50;;;18.89;100.00